Главная страница
METAR-TAF:

METAR-TAF

Аэропорты :

Бейрут, Ливан

широта: 33-49N, долгота: 035-29E, высота над уровнем моря: 29 м

Текущие метеонаблюдения

Эта сводка был подготовлена 9 минут назад, в 22:00 UTC
Ветер 4 Узел от западный, изменяющийся между юго-западный и западно-северо-западный
Температура 25°C
Влажность 74%
Давление 1011 hPa
Видимость: 8000 м
Отдельные облака на высоте 2600 фута

METAR: OLBA 242200Z 26004KT 230V300 8000 SCT026 25/20 Q1011 NOSIG

Время: 01:09 (22:09 UTC)

Прогноз

Эта сводка был подготовлена 6 часа и 9 минут назад, в 16:00 UTC
Прогноз действительный с 24-го 18 UTC до 25-го 24 UTC
Ветер 5 Узел переменных направлений
Видимость: 8000 м
Отдельные облака на высоте 2400 фута
изменения
С 25-го 09 UTC до 25-го 12 UTC
Ветер 10 Узел от западный-юго-западный с порывами до 20 Узел
изменения
С 25-го 21 UTC до 25-го 24 UTC
Ветер 5 Узел переменных направлений

TAF: OLBA 241600Z 2418/2524 VRB05KT 8000 SCT024 BECMG 2509/2512 24010G20KT BECMG 2521/2524 VRB05KT

Метеонаблюдения и прогнозы для более 4000 аэропортов (сводки METAR и TAF).

Имеющиеся станции представлены на карте желтыми и красными точками.

Чтобы увидеть название станции, наведите на нее мышь.

Затем щелкните, чтобы увидеть метеонаблюдения и метеопрогнозы.

Управление картой: чтобы увеличить масштаб, щелкните зеленые кнопки с черным крестиком; чтобы уменьшить масштаб, щелкните зеленую кнопку с тире; для просмотра соседних карт щелкайте зеленые стрелки.


METAR-TAF: